Flight Track Log - Related Links

Times and Time Zones

All times are in EDT time to prevent confusion due to time zone crossing. See the CPZ5750 flight status page for this flight to view local times or setup timezone preferences in your user account.

Time Position Orientation Groundspeed Altitude Reporting Facility
EDT Latitude Longitude Course Direction KTS MPH feet Rate Location/Type
Sat 04:29:35 PM 44.8833 -93.1667 70° East 148 170 2,100  Level Minneapolis TRACON
Sat 04:30:23 PM 44.8667 -93.1167 115° Southeast 207 238 2,900 1,556 Climbing Minneapolis TRACON
Sat 04:31:23 PM 44.9000 -93.0333 61° Northeast 283 326 4,900 2,158 Climbing Minneapolis TRACON
Sat 04:32:00 PM 45.0448 -92.6016 68° East  Level FlightAware Approximate
Sat 04:32:17 PM 44.9667 -93.0167 10° North 312 359 7,000  Level Minneapolis TRACON
Sat 04:33:00 PM 45.0883 -92.4468 70° East  Level FlightAware Approximate
Sat 04:33:17 PM 45.0500 -92.9667 23° Northeast 315 362 10,300  Level Minneapolis TRACON
Sat 04:34:00 PM 45.1237 -92.2888 70° East  Level FlightAware Approximate
Sat 04:34:44 PM 45.1217 -92.7883 60° Northeast 375 432 12,600  Level Minneapolis Center
Sat 04:35:46 PM 45.1694 -92.6561 63° Northeast 378 435 15,100 2,226 Climbing Minneapolis Center
Sat 04:36:48 PM 45.2189 -92.5219 62° Northeast 382 440 17,200 2,032 Climbing Minneapolis Center
Sat 04:37:50 PM 45.2683 -92.3822 63° Northeast 395 455 19,300 1,790 Climbing Minneapolis Center
Sat 04:38:52 PM 45.3128 -92.2344 67° East 403 464 20,900 1,403 Climbing Minneapolis Center
Sat 04:39:54 PM 45.3325 -92.0686 80° East 419 482 22,200 1,452 Climbing Minneapolis Center
Sat 04:40:56 PM 45.3619 -91.8675 78° East 431 496 23,900 1,355 Climbing Minneapolis Center
Sat 04:41:58 PM 45.3842 -91.6967 79° East 438 504 25,000 1,065 Climbing Minneapolis Center
Sat 04:43:00 PM 45.4075 -91.5228 79° East 442 509 26,100 1,065 Climbing Minneapolis Center
Sat 04:44:02 PM 45.4289 -91.3464 80° East 448 516 27,200 968 Climbing Minneapolis Center
Sat 04:45:04 PM 45.4517 -91.1703 79° East 451 519 28,100 726 Climbing Minneapolis Center
Sat 04:46:06 PM 45.4647 -90.9908 84° East 453 521 28,700 780 Climbing Minneapolis Center
Sat 04:47:07 PM 45.4008 -90.7844 114° Southeast 466 536 29,700 1,073 Climbing Minneapolis Center
Sat 04:48:09 PM 45.3481 -90.6153 114° Southeast 469 540 30,900 1,210 Climbing Minneapolis Center
Sat 04:49:11 PM 45.2969 -90.4497 114° Southeast 465 535 32,200 1,065 Climbing Minneapolis Center
Sat 04:50:13 PM 45.2903 -90.2761 93° East 448 516 33,100 871 Climbing Minneapolis Center
Sat 04:51:15 PM 45.3067 -90.1008 82° East 450 518 34,000 919 Climbing Minneapolis Center
Sat 04:52:17 PM 45.3236 -89.8908 83° East 449 517 35,000 484 Climbing Minneapolis Center
Sat 04:53:19 PM 45.3128 -89.7136 95° East 456 525 35,000  Level Minneapolis Center
Sat 04:54:21 PM 45.2950 -89.5383 98° East 453 521 35,000  Level Minneapolis Center
Sat 04:55:23 PM 45.2814 -89.3961 98° East 456 525 35,000  Level Minneapolis Center
Sat 04:56:25 PM 45.2603 -89.1853 98° East 453 521 35,000  Level Minneapolis Center
Sat 04:57:27 PM 45.2417 -89.0078 98° East 456 525 35,000  Level Minneapolis Center
Sat 04:58:29 PM 45.2208 -88.8017 98° East 446 513 35,000  Level Minneapolis Center
Sat 04:59:31 PM 45.2025 -88.6300 99° East 444 511 35,000  Level Minneapolis Center
Sat 05:00:33 PM 45.1817 -88.4494 99° East 442 509 35,000  Level Minneapolis Center
Sat 05:01:35 PM 45.1636 -88.2789 98° East 440 506 35,000  Level Minneapolis Center
Sat 05:02:36 PM 45.1453 -88.1094 99° East 437 503 35,000  Level Minneapolis Center
Sat 05:03:38 PM 45.1292 -87.9403 98° East 436 502 35,000  Level Minneapolis Center
Sat 05:04:40 PM 45.1111 -87.7706 99° East 438 504 35,000  Level Minneapolis Center
Sat 05:05:42 PM 45.0928 -87.5986 99° East 441 507 35,000  Level Minneapolis Center
Sat 05:06:44 PM 45.0744 -87.4258 98° East 445 512 35,000  Level Minneapolis Center
Sat 05:07:46 PM 45.0525 -87.2161 98° East 450 518 35,000  Level Minneapolis Center
Sat 05:08:47 PM 45.0339 -87.0411 98° East 451 519 35,000  Level Minneapolis Center
Sat 05:09:49 PM 45.0150 -86.8644 99° East 454 522 35,000  Level Minneapolis Center
Sat 05:10:51 PM 44.9972 -86.7086 99° East 461 531 35,000  Level Minneapolis Center
Sat 05:11:53 PM 44.9717 -86.4864 99° East 473 544 35,000  Level Minneapolis Center
Sat 05:12:55 PM 44.9511 -86.3025 99° East 474 545 35,000  Level Minneapolis Center
Sat 05:13:56 PM 44.9289 -86.1175 100° East 477 549 35,000  Level Minneapolis Center
Sat 05:14:58 PM 44.9075 -85.9333 99° East 477 549 35,000  Level Minneapolis Center
Sat 05:16:12 PM 44.8847 -85.7461 100° East 481 554 35,000  Level Minneapolis Center
Sat 05:17:14 PM 44.8528 -85.4828 100° East 483 556 35,000  Level Minneapolis Center
Sat 05:18:16 PM 44.8297 -85.2956 100° East 484 557 35,000  Level Minneapolis Center
Sat 05:19:17 PM 44.8069 -85.1103 100° East 483 556 35,000  Level Minneapolis Center
Sat 05:20:19 PM 44.7831 -84.9239 100° East 483 556 35,000  Level Minneapolis Center
Sat 05:21:21 PM 44.7589 -84.7361 100° East 487 560 35,000  Level Minneapolis Center
Sat 05:22:23 PM 44.7342 -84.5500 101° East 486 559 35,000  Level Minneapolis Center
Sat 05:23:24 PM 44.7097 -84.3614 100° East 490 564 35,000  Level Minneapolis Center
Sat 05:24:26 PM 44.6794 -84.1361 101° East 491 565 35,000  Level Minneapolis Center
Sat 05:25:28 PM 44.6528 -83.9489 101° East 490 564 35,000  Level Minneapolis Center
Sat 05:26:29 PM 44.6264 -83.7589 101° East 493 567 35,000  Level Minneapolis Center
Sat 05:27:31 PM 44.6006 -83.5719 101° East 492 566 35,000  Level Minneapolis Center
Sat 05:28:33 PM 44.5742 -83.3831 101° East 493 567 35,000  Level Minneapolis Center
Sat 05:29:34 PM 44.5464 -83.1942 102° East 495 570 35,000  Level Minneapolis Center
Sat 05:30:36 PM 44.5200 -83.0067 101° East 493 567 35,000  Level Minneapolis Center
Sat 05:31:38 PM 44.4853 -82.7800 102° East 497 572 35,000  Level Minneapolis Center
Sat 05:32:39 PM 44.4578 -82.5897 101° East 498 573 35,000  Level Minneapolis Center
Sat 05:33:41 PM 44.4292 -82.4008 102° East 499 574 35,000  Level Minneapolis Center
Sat 05:34:13 PM 44.4000 -82.2667 107° East 500 575 35,000  Level Toronto Center
Sat 05:35:13 PM 44.3667 -82.1000 106° East 500 575 35,000  Level Toronto Center
Sat 05:36:13 PM 44.3500 -81.9000 97° East 500 575 35,000  Level Toronto Center
Sat 05:37:13 PM 44.3167 -81.7000 103° East 500 575 35,000  Level Toronto Center
Sat 05:38:13 PM 44.2833 -81.5167 104° East 500 575 35,000  Level Toronto Center
Sat 05:39:13 PM 44.2500 -81.3333 104° East 500 575 35,000  Level Toronto Center
Sat 05:40:13 PM 44.2167 -81.1500 104° East 500 575 35,000  Level Toronto Center
Sat 05:41:13 PM 44.1833 -80.9500 103° East 500 575 35,000  Level Toronto Center
Sat 05:42:13 PM 44.1667 -80.7667 97° East 500 575 35,000  Level Toronto Center
Sat 05:43:13 PM 44.1333 -80.5833 104° East 500 575 35,000  Level Toronto Center
Sat 05:44:13 PM 44.1000 -80.4000 104° East 500 575 35,000  Level Toronto Center
Sat 05:45:13 PM 44.0667 -80.2167 104° East 500 575 35,000  Level Toronto Center
Sat 05:46:13 PM 44.0333 -80.0333 104° East 500 575 35,000  Level Toronto Center
Sat 05:47:13 PM 44.0000 -79.8333 103° East 500 575 35,000  Level Toronto Center
Sat 05:48:13 PM 43.9667 -79.6500 104° East 500 575 35,000  Level Toronto Center
Sat 05:49:13 PM 43.9333 -79.4667 104° East 500 575 35,000  Level Toronto Center
Sat 05:50:13 PM 43.9000 -79.2667 103° East 500 575 35,000  Level Toronto Center
Sat 05:51:13 PM 43.8667 -79.0833 104° East 500 575 35,000  Level Toronto Center
Sat 05:52:13 PM 43.8333 -78.9000 104° East 500 575 35,000  Level Toronto Center
Sat 05:53:13 PM 43.8000 -78.7167 104° East 500 575 35,000  Level Toronto Center
Sat 05:54:13 PM 43.7667 -78.5167 103° East 500 575 35,000  Level Toronto Center
Sat 05:55:13 PM 43.7167 -78.3333 111° Southeast 500 575 35,000  Level Toronto Center
Sat 05:56:13 PM 43.6833 -78.1500 104° East 500 575 35,000  Level Toronto Center
Sat 05:57:13 PM 43.6500 -77.9667 104° East 500 575 35,000  Level Toronto Center
Sat 05:58:13 PM 43.6167 -77.7833 104° East 500 575 35,000  Level Toronto Center
Sat 05:59:00 PM 43.5994 -77.6881 104° East 492 566 35,000  Level Cleveland Center
Sat 06:00:00 PM 43.5614 -77.5094 106° East 492 566 35,000 -732 Level Cleveland Center
Sat 06:01:44 PM 43.4958 -77.1892 106° East 469 540 33,000 -1,683 Descending Boston Center
Sat 06:02:44 PM 43.4561 -76.9917 105° East 482 555 30,400 -2,000 Descending Boston Center
Sat 06:03:44 PM 43.4194 -76.8086 105° East 487 560 29,000 -700 Descending Boston Center
Sat 06:04:44 PM 43.3825 -76.6258 105° East 487 560 29,000  Level Boston Center
Sat 06:05:44 PM 43.3431 -76.4461 107° East 487 560 29,000 -200 Level Boston Center
Sat 06:06:44 PM 43.3056 -76.2639 106° East 487 560 28,600 -650 Descending Boston Center
Sat 06:07:44 PM 43.2675 -76.0875 106° East 487 560 27,700 -900 Descending Boston Center
Sat 06:08:44 PM 43.2311 -75.9142 106° East 482 555 26,800 -850 Descending Boston Center
Sat 06:09:44 PM 43.1906 -75.7408 108° East 482 555 26,000 -750 Descending Boston Center
Sat 06:10:44 PM 43.1536 -75.5708 107° East 476 548 25,300 -600 Descending Boston Center
Sat 06:11:44 PM 43.1239 -75.4300 106° East 471 542 24,800 -1,350 Descending Boston Center
Sat 06:12:44 PM 43.0808 -75.2458 108° East 466 536 22,600 -2,250 Descending Boston Center
Sat 06:13:44 PM 43.0469 -75.0853 106° East 453 521 20,300 -2,250 Descending Boston Center
Sat 06:14:44 PM 43.0128 -74.9361 107° East 435 501 18,100 -2,300 Descending Boston Center
Sat 06:15:44 PM 42.9747 -74.7700 107° East 422 486 15,700 -2,150 Descending Boston Center
Sat 06:16:44 PM 42.9461 -74.6411 107° East 406 467 13,800 -2,050 Descending Boston Center
Sat 06:17:44 PM 42.9092 -74.4869 108° East 394 453 11,600 -1,700 Descending Boston Center
Sat 06:18:44 PM 42.8817 -74.3953 112° Southeast 378 435 10,400 -1,400 Descending Boston Center
Sat 06:19:44 PM 42.8131 -74.2656 126° Southeast 339 390 8,800 -1,450 Descending Boston Center
Sat 06:20:44 PM 42.7664 -74.1794 126° Southeast 312 359 7,500 -1,450 Descending Boston Center
Sat 06:21:44 PM 42.7117 -74.0819 127° Southeast 302 348 5,900 -1,500 Descending Boston Center
Sat 06:22:44 PM 42.6689 -74.0044 127° Southeast 297 342 4,500 -1,300 Descending Boston Center
Sat 06:23:44 PM 42.6453 -73.9078 108° East 285 328 3,300 -1,100 Descending Boston Center
Sat 06:24:44 PM 42.6358 -73.8203 98° East 258 297 2,300 -1,000 Descending Boston Center

Login

Don't have an account? Register now (free) for customized features, flight alerts, and more!